Time;durP1;ratioP1;P1;durP2;ratioP2;P2;SDS_P1;SDS_P2;PMS_P1;PMS_P2;Temp;Humidity;BMP_temperature;BMP_pressure;BME280_temperature;BME280_humidity;BME280_pressure;Samples;Min_cycle;Max_cycle;Signal;HPM_P1;HPM_P2
2021/12/10 00:01:30;;;;;;;61.28;31.52;;;4.60;99.90;;;;;;4900172;29;20071;-91
2021/12/10 00:07:03;;;;;;;57.88;29.90;;;4.70;99.90;;;;;;4916224;29;20036;-91
2021/12/10 00:12:51;;;;;;;70.53;33.00;;;4.70;99.90;;;;;;4902011;29;20047;-90
2021/12/10 00:15:33;;;;;;;71.47;33.58;;;4.60;99.90;;;;;;4898640;29;20036;-90
2021/12/10 00:18:01;;;;;;;68.25;32.55;;;4.60;99.90;;;;;;4892280;29;20548;-90
2021/12/10 00:20:34;;;;;;;62.80;33.33;;;4.60;99.90;;;;;;4910288;29;20043;-90
2021/12/10 00:23:24;;;;;;;70.82;32.25;;;4.60;99.90;;;;;;4898361;29;20047;-91
2021/12/10 00:26:23;;;;;;;;;;;;;;;;;;;;;
2021/12/10 00:29:02;;;;;;;62.30;30.52;;;4.70;99.90;;;;;;4930699;29;20070;-90
2021/12/10 00:32:05;;;;;;;59.90;31.15;;;4.60;99.90;;;;;;4914934;29;20099;-92
2021/12/10 00:34:53;;;;;;;71.68;30.45;;;4.60;99.90;;;;;;4905888;29;20055;-91
2021/12/10 00:37:45;;;;;;;61.33;30.08;;;4.60;99.90;;;;;;4899493;29;20039;-91
2021/12/10 00:40:25;;;;;;;53.72;26.67;;;4.70;99.90;;;;;;4913604;29;20062;-91
2021/12/10 00:42:52;;;;;;;60.20;29.05;;;4.70;99.90;;;;;;4914327;29;20436;-90
2021/12/10 00:45:21;;;;;;;54.60;29.40;;;4.70;99.90;;;;;;4893600;29;20039;-91
2021/12/10 00:48:05;;;;;;;62.63;30.48;;;4.80;99.90;;;;;;4901131;29;20035;-92
2021/12/10 00:50:53;;;;;;;54.67;27.25;;;4.70;99.90;;;;;;4899408;29;20506;-92
2021/12/10 00:53:32;;;;;;;57.80;26.60;;;4.80;99.90;;;;;;4898648;29;20055;-92
2021/12/10 00:56:05;;;;;;;58.47;26.23;;;4.70;99.90;;;;;;4894166;29;20059;-91
2021/12/10 00:58:41;;;;;;;56.20;27.02;;;4.70;99.90;;;;;;4885316;29;20048;-91
2021/12/10 01:01:26;;;;;;;56.67;28.63;;;4.70;99.90;;;;;;4905012;29;20048;-90
2021/12/10 01:04:17;;;;;;;57.30;27.42;;;4.70;99.90;;;;;;4912128;29;20397;-92
2021/12/10 01:07:07;;;;;;;50.70;26.42;;;4.70;99.90;;;;;;4886500;29;20492;-90
2021/12/10 01:09:55;;;;;;;56.17;27.08;;;4.70;99.90;;;;;;4927641;29;20508;-90
2021/12/10 01:13:17;;;;;;;50.22;25.98;;;4.70;99.90;;;;;;4903590;29;20131;-92
2021/12/10 01:27:42;;;;;;;47.38;23.55;;;4.70;99.90;;;;;;4893873;29;20503;-91
2021/12/10 01:30:41;;;;;;;;;;;;;;;;;;;;;
2021/12/10 01:33:23;;;;;;;;;;;;;;;;;;;;;
2021/12/10 01:36:14;;;;;;;51.75;26.67;;;4.70;99.90;;;;;;4922435;29;20093;-91
2021/12/10 01:38:43;;;;;;;50.47;25.97;;;4.70;99.90;;;;;;4898604;29;20051;-90
2021/12/10 01:41:18;;;;;;;55.88;27.25;;;4.70;99.90;;;;;;4899509;29;20130;-91
2021/12/10 01:44:26;;;;;;;48.78;25.27;;;4.70;99.90;;;;;;4916761;29;20038;-89
2021/12/10 01:47:02;;;;;;;44.65;23.65;;;4.70;99.90;;;;;;4902017;29;20373;-92
2021/12/10 01:49:40;;;;;;;51.55;22.08;;;4.70;99.90;;;;;;4912974;29;20503;-91
2021/12/10 01:52:23;;;;;;;39.40;22.70;;;4.70;99.90;;;;;;4915402;29;20401;-90
2021/12/10 01:54:54;;;;;;;51.38;22.50;;;4.60;99.90;;;;;;4902171;29;20048;-90
2021/12/10 01:57:45;;;;;;;;;;;;;;;;;;;;;
2021/12/10 02:00:19;;;;;;;50.75;23.08;;;4.60;99.90;;;;;;4942910;23;20493;-86
2021/12/10 02:02:50;;;;;;;41.80;21.48;;;4.60;99.90;;;;;;4931145;28;20047;-84
2021/12/10 02:05:18;;;;;;;46.42;21.60;;;4.60;99.90;;;;;;4901260;28;20051;-84
2021/12/10 02:07:45;;;;;;;37.85;20.10;;;4.60;99.90;;;;;;4931123;28;20167;-84
2021/12/10 02:10:19;;;;;;;53.22;22.40;;;4.60;99.90;;;;;;4888606;28;20219;-88
2021/12/10 02:13:03;;;;;;;38.97;19.25;;;4.60;99.90;;;;;;4908867;28;20149;-85
2021/12/10 02:15:30;;;;;;;36.30;20.63;;;4.60;99.90;;;;;;4920314;28;20046;-85
2021/12/10 02:18:02;;;;;;;39.63;18.88;;;4.50;99.90;;;;;;4921204;28;20103;-84
2021/12/10 02:20:45;;;;;;;35.55;20.20;;;4.60;99.90;;;;;;4921901;28;20043;-86
2021/12/10 02:23:11;;;;;;;;;;;4.60;99.90;;;;;;4925038;28;20066;-84
2021/12/10 02:25:37;;;;;;;44.85;20.58;;;4.50;99.90;;;;;;4909875;28;20358;-83
2021/12/10 02:28:13;;;;;;;39.88;20.10;;;4.50;99.90;;;;;;4929395;28;20042;-86
2021/12/10 02:30:44;;;;;;;39.08;19.73;;;4.50;99.90;;;;;;4933791;28;20050;-84
2021/12/10 02:33:14;;;;;;;34.40;18.73;;;4.50;99.90;;;;;;4927369;28;20035;-85
2021/12/10 02:35:47;;;;;;;39.63;19.05;;;4.50;99.90;;;;;;4913924;28;20047;-84
2021/12/10 02:38:17;;;;;;;35.80;19.10;;;4.50;99.90;;;;;;4919706;28;21989;-84
2021/12/10 02:40:43;;;;;;;32.17;18.25;;;4.50;99.90;;;;;;4906607;28;20134;-84
2021/12/10 02:43:20;;;;;;;39.78;19.38;;;4.50;99.90;;;;;;4924776;28;20728;-85
2021/12/10 02:45:53;;;;;;;44.17;18.83;;;4.40;99.90;;;;;;4908596;28;20398;-85
2021/12/10 02:48:23;;;;;;;37.20;18.77;;;4.40;99.90;;;;;;4913112;28;20047;-84
2021/12/10 02:50:52;;;;;;;39.92;17.83;;;4.40;99.90;;;;;;4920498;28;20039;-85
2021/12/10 02:53:30;;;;;;;39.90;19.23;;;4.40;99.90;;;;;;4924530;28;20039;-84
2021/12/10 02:56:08;;;;;;;35.50;17.88;;;4.40;99.90;;;;;;4923435;28;20114;-84
2021/12/10 02:58:53;;;;;;;41.13;18.30;;;4.40;99.90;;;;;;4911993;28;20046;-84
2021/12/10 03:01:33;;;;;;;40.22;18.65;;;4.40;99.90;;;;;;4904677;28;20070;-84
2021/12/10 03:04:40;;;;;;;35.95;19.02;;;4.40;99.90;;;;;;4917866;28;22599;-86
2021/12/10 03:07:50;;;;;;;34.80;18.77;;;4.30;99.90;;;;;;4889250;28;20511;-84
2021/12/10 03:10:22;;;;;;;37.30;18.63;;;4.40;99.90;;;;;;4904283;28;20098;-83
2021/12/10 03:12:48;;;;;;;40.15;19.00;;;4.40;99.90;;;;;;4922084;28;20146;-83
2021/12/10 03:15:23;;;;;;;41.90;19.35;;;4.40;99.90;;;;;;4887560;28;20418;-85
2021/12/10 03:17:57;;;;;;;38.42;18.08;;;4.40;99.90;;;;;;4909954;28;20078;-84
2021/12/10 03:20:28;;;;;;;34.92;18.08;;;4.50;99.90;;;;;;4891073;28;20043;-83
2021/12/10 03:23:03;;;;;;;36.78;17.48;;;4.40;99.90;;;;;;4912123;28;20619;-84
2021/12/10 03:25:35;;;;;;;38.45;17.95;;;4.40;99.90;;;;;;4901806;28;20032;-84
2021/12/10 03:28:11;;;;;;;38.15;18.15;;;4.40;99.90;;;;;;4904888;28;20398;-83
2021/12/10 03:30:46;;;;;;;45.97;18.70;;;4.50;99.90;;;;;;4922114;28;20046;-86
2021/12/10 03:33:51;;;;;;;38.35;19.17;;;4.40;99.90;;;;;;4922737;28;20047;-84
2021/12/10 03:36:32;;;;;;;37.95;19.50;;;4.50;99.90;;;;;;4920436;28;20047;-82
2021/12/10 03:39:02;;;;;;;43.50;22.33;;;4.40;99.90;;;;;;4909054;28;20051;-85
2021/12/10 03:41:31;;;;;;;41.42;20.35;;;4.50;99.90;;;;;;4916320;28;20076;-87
2021/12/10 03:44:06;;;;;;;46.78;22.65;;;4.50;99.90;;;;;;4890476;28;20551;-85
2021/12/10 03:46:36;;;;;;;33.80;19.60;;;4.50;99.90;;;;;;4901975;28;20589;-83
2021/12/10 03:49:15;;;;;;;45.20;22.63;;;4.40;99.90;;;;;;4905733;28;20102;-88
2021/12/10 03:51:42;;;;;;;44.13;22.42;;;4.40;99.90;;;;;;4937586;28;20771;-83
2021/12/10 03:54:24;;;;;;;39.13;21.73;;;4.40;99.90;;;;;;4921893;28;20130;-83
2021/12/10 03:56:50;;;;;;;37.60;23.25;;;4.40;99.90;;;;;;4910182;28;20041;-83
2021/12/10 03:59:22;;;;;;;42.90;23.65;;;4.40;99.90;;;;;;4914444;28;20039;-83
2021/12/10 04:02:02;;;;;;;45.15;25.50;;;4.40;99.90;;;;;;4905076;28;20035;-85
2021/12/10 04:04:32;;;;;;;45.50;25.90;;;4.40;99.90;;;;;;4916221;28;20047;-83
2021/12/10 04:07:00;;;;;;;41.35;24.42;;;4.40;99.90;;;;;;4923334;28;20140;-87
2021/12/10 04:09:55;;;;;;;46.25;25.15;;;4.30;99.90;;;;;;4911099;28;20411;-86
2021/12/10 04:12:33;;;;;;;38.50;24.10;;;4.30;99.90;;;;;;4901587;28;20063;-84
2021/12/10 04:14:59;;;;;;;45.78;23.40;;;4.30;99.90;;;;;;4915267;28;20061;-83
2021/12/10 04:17:38;;;;;;;45.25;23.65;;;4.30;99.90;;;;;;4918888;28;20066;-85
2021/12/10 04:20:13;;;;;;;44.85;24.17;;;4.30;99.90;;;;;;4940370;28;20047;-85
2021/12/10 04:22:40;;;;;;;39.45;22.73;;;4.20;99.90;;;;;;4920450;28;21147;-83
2021/12/10 04:25:08;;;;;;;38.20;21.77;;;4.20;99.90;;;;;;4901465;28;20094;-83
2021/12/10 04:27:36;;;;;;;35.92;21.50;;;4.20;99.90;;;;;;4900269;28;20031;-84
2021/12/10 04:30:39;;;;;;;38.45;21.40;;;4.10;99.90;;;;;;4901739;28;21765;-84
2021/12/10 04:33:16;;;;;;;35.78;21.60;;;4.10;99.90;;;;;;4919619;28;20049;-83
2021/12/10 04:35:58;;;;;;;33.25;20.77;;;4.00;99.90;;;;;;4916944;28;20069;-84
2021/12/10 04:38:35;;;;;;;38.67;20.13;;;4.00;99.90;;;;;;4918732;28;20053;-83
2021/12/10 04:42:06;;;;;;;35.90;20.38;;;3.90;99.90;;;;;;4897147;28;20307;-84
2021/12/10 04:45:14;;;;;;;37.08;20.52;;;3.80;99.90;;;;;;4893700;28;20410;-83
2021/12/10 04:47:54;;;;;;;39.33;21.00;;;3.70;99.90;;;;;;4885329;28;20055;-84
2021/12/10 04:50:30;;;;;;;42.42;22.30;;;3.70;99.90;;;;;;4913745;28;20051;-82
2021/12/10 04:53:12;;;;;;;40.47;21.25;;;3.60;99.90;;;;;;4918401;28;20695;-83
2021/12/10 04:55:48;;;;;;;42.25;21.92;;;3.60;99.90;;;;;;4915041;28;20063;-84
2021/12/10 04:58:18;;;;;;;41.38;24.05;;;3.50;99.90;;;;;;4915295;28;20467;-84
2021/12/10 05:00:51;;;;;;;41.33;24.58;;;3.40;99.90;;;;;;4902268;28;20051;-83
2021/12/10 05:03:20;;;;;;;46.92;24.75;;;3.40;99.90;;;;;;4899554;28;20073;-83
2021/12/10 05:05:48;;;;;;;48.42;26.58;;;3.40;99.90;;;;;;4887621;28;20446;-83
2021/12/10 05:08:26;;;;;;;47.65;25.95;;;3.40;99.90;;;;;;4885070;28;20589;-83
2021/12/10 05:11:08;;;;;;;52.97;27.42;;;3.30;99.90;;;;;;4918909;28;20499;-83
2021/12/10 05:13:44;;;;;;;45.97;25.60;;;3.30;99.90;;;;;;4888568;28;20786;-84
2021/12/10 05:16:24;;;;;;;40.67;25.55;;;3.30;99.90;;;;;;4917301;28;20071;-83
2021/12/10 05:18:56;;;;;;;47.00;26.27;;;3.30;99.90;;;;;;4904516;28;20237;-85
2021/12/10 05:21:27;;;;;;;50.47;27.75;;;3.20;99.90;;;;;;4921556;28;20707;-83
2021/12/10 05:23:53;;;;;;;43.97;24.98;;;3.20;99.90;;;;;;4931894;28;20103;-82
2021/12/10 05:29:39;;;;;;;48.63;24.20;;;3.10;99.90;;;;;;4935381;28;20635;-82
2021/12/10 05:32:07;;;;;;;40.47;22.60;;;3.10;99.90;;;;;;4937148;28;20134;-84
2021/12/10 05:34:40;;;;;;;40.47;21.85;;;3.10;99.90;;;;;;4905079;28;20094;-82
2021/12/10 05:37:46;;;;;;;45.63;23.10;;;3.10;99.90;;;;;;4921378;28;20398;-84
2021/12/10 05:40:35;;;;;;;35.35;20.88;;;3.10;99.90;;;;;;4906904;28;20044;-84
2021/12/10 05:43:09;;;;;;;40.35;23.02;;;3.20;99.90;;;;;;4902971;28;20471;-85
2021/12/10 05:46:20;;;;;;;38.88;21.52;;;3.10;99.90;;;;;;4918296;28;20053;-84
2021/12/10 05:49:13;;;;;;;;;;;;;;;;;;;;;
2021/12/10 05:51:53;;;;;;;35.70;20.02;;;3.00;99.90;;;;;;4940540;28;20110;-84
2021/12/10 05:54:39;;;;;;;34.92;20.75;;;3.00;99.90;;;;;;4928738;28;20074;-83
2021/12/10 05:57:10;;;;;;;37.25;20.58;;;2.90;99.90;;;;;;4908123;28;20426;-84
2021/12/10 05:59:49;;;;;;;35.67;19.80;;;2.80;99.90;;;;;;4910225;28;20599;-86
2021/12/10 06:02:34;;;;;;;;;;;;;;;;;;;;;
2021/12/10 06:05:23;;;;;;;35.45;21.05;;;2.80;99.90;;;;;;4925954;28;20039;-84
2021/12/10 06:07:49;;;;;;;38.65;20.38;;;2.70;99.90;;;;;;4914723;28;20110;-84
2021/12/10 06:10:29;;;;;;;41.67;20.60;;;2.60;99.90;;;;;;4913893;28;20126;-84
2021/12/10 06:12:59;;;;;;;36.03;21.02;;;2.60;99.90;;;;;;4931732;28;20035;-83
2021/12/10 06:15:28;;;;;;;39.10;20.60;;;2.50;99.90;;;;;;4896450;28;20054;-84
2021/12/10 06:18:53;;;;;;;37.03;20.80;;;2.50;99.90;;;;;;4918616;28;20063;-84
2021/12/10 06:25:43;;;;;;;36.42;19.77;;;2.30;99.90;;;;;;4934341;28;20066;-85
2021/12/10 06:28:12;;;;;;;39.80;20.90;;;2.20;99.90;;;;;;4905593;28;20189;-83
2021/12/10 06:31:01;;;;;;;33.50;19.25;;;2.20;99.90;;;;;;4925645;28;20053;-86
2021/12/10 06:33:39;;;;;;;40.40;20.38;;;2.20;99.90;;;;;;4927013;28;20043;-84
2021/12/10 06:36:20;;;;;;;36.72;19.17;;;2.10;99.90;;;;;;4910232;28;20050;-84
2021/12/10 06:39:12;;;;;;;40.42;20.08;;;2.10;99.90;;;;;;4922175;29;20046;-84
2021/12/10 06:45:08;;;;;;;36.15;18.13;;;2.10;99.90;;;;;;4883467;29;20044;-84
2021/12/10 06:47:34;;;;;;;36.28;18.10;;;2.00;99.90;;;;;;4875811;29;20572;-84
2021/12/10 06:50:27;;;;;;;38.17;19.48;;;2.00;99.90;;;;;;4859569;29;20040;-84
2021/12/10 06:53:02;;;;;;;33.80;18.73;;;2.00;99.90;;;;;;4873290;29;21389;-85
2021/12/10 06:55:33;;;;;;;34.97;17.15;;;1.90;99.90;;;;;;4869580;29;20126;-84
2021/12/10 06:58:01;;;;;;;37.65;19.40;;;1.90;99.90;;;;;;4866308;29;20076;-84
2021/12/10 07:00:49;;;;;;;35.35;17.73;;;1.80;99.90;;;;;;4905735;28;20055;-82
2021/12/10 07:03:23;;;;;;;37.25;17.88;;;1.80;99.90;;;;;;4938857;28;20051;-83
2021/12/10 07:05:56;;;;;;;31.17;17.35;;;1.80;99.90;;;;;;4918778;28;20398;-84
2021/12/10 07:08:33;;;;;;;30.77;16.83;;;1.80;99.90;;;;;;4927149;28;20089;-83
2021/12/10 07:11:01;;;;;;;35.15;18.10;;;1.70;99.90;;;;;;4910138;28;20051;-84
2021/12/10 07:13:41;;;;;;;32.53;17.27;;;1.70;99.90;;;;;;4909487;28;20051;-83
2021/12/10 07:16:14;;;;;;;34.85;17.17;;;1.70;99.90;;;;;;4923434;28;20050;-83
2021/12/10 07:18:40;;;;;;;30.48;16.85;;;1.70;99.90;;;;;;4903550;28;20099;-82
2021/12/10 07:21:19;;;;;;;33.38;16.13;;;1.60;99.90;;;;;;4908640;28;20098;-84
2021/12/10 07:23:55;;;;;;;32.75;16.63;;;1.60;99.90;;;;;;4912659;28;20046;-83
2021/12/10 07:26:30;;;;;;;35.75;18.05;;;1.60;99.90;;;;;;4927232;28;20039;-84
2021/12/10 07:28:58;;;;;;;41.20;17.83;;;1.60;99.90;;;;;;4920552;28;20043;-83
2021/12/10 07:31:24;;;;;;;34.65;17.42;;;1.50;99.90;;;;;;4929960;28;20072;-84
2021/12/10 07:34:01;;;;;;;36.47;16.67;;;1.60;99.90;;;;;;4932244;28;20290;-84
2021/12/10 07:36:33;;;;;;;33.20;16.13;;;1.50;99.90;;;;;;4898672;28;20428;-84
2021/12/10 07:39:05;;;;;;;31.25;16.65;;;1.50;99.90;;;;;;4893676;28;20046;-84
2021/12/10 07:41:32;;;;;;;33.85;15.63;;;1.50;99.90;;;;;;4927240;28;20138;-85
2021/12/10 07:44:03;;;;;;;30.05;15.90;;;1.50;99.90;;;;;;4926397;28;20066;-84
2021/12/10 07:46:34;;;;;;;29.52;15.52;;;1.50;99.90;;;;;;4930526;28;20044;-83
2021/12/10 07:49:14;;;;;;;29.85;14.52;;;1.50;99.90;;;;;;4932547;28;20438;-86
2021/12/10 07:51:44;;;;;;;30.08;14.00;;;1.50;99.90;;;;;;4925799;28;20027;-84
2021/12/10 07:54:11;;;;;;;30.90;15.00;;;1.60;99.90;;;;;;4910271;28;20039;-84
2021/12/10 07:56:38;;;;;;;32.85;14.95;;;1.50;99.90;;;;;;4916957;28;20038;-85
2021/12/10 07:59:05;;;;;;;34.28;15.18;;;1.50;99.90;;;;;;4898960;28;20039;-84
2021/12/10 08:01:36;;;;;;;33.30;15.45;;;1.50;99.90;;;;;;4931039;28;20094;-83
2021/12/10 08:04:13;;;;;;;30.77;15.65;;;1.40;99.90;;;;;;4946323;28;20047;-83
2021/12/10 08:06:42;;;;;;;33.22;14.85;;;1.50;99.90;;;;;;4901392;28;20049;-83
2021/12/10 08:09:17;;;;;;;28.38;14.68;;;1.40;99.90;;;;;;4919597;28;20045;-85
2021/12/10 08:11:52;;;;;;;32.05;15.00;;;1.40;99.90;;;;;;4916024;28;20385;-83
2021/12/10 08:14:19;;;;;;;27.80;14.88;;;1.40;99.90;;;;;;4919009;28;20042;-83
2021/12/10 08:16:51;;;;;;;30.77;15.45;;;1.40;99.90;;;;;;4917954;28;20545;-84
2021/12/10 08:19:29;;;;;;;35.17;15.27;;;1.40;99.90;;;;;;4902475;28;20426;-84
2021/12/10 08:22:02;;;;;;;34.15;15.75;;;1.40;99.90;;;;;;4928154;28;20360;-84
2021/12/10 08:24:29;;;;;;;31.00;15.38;;;1.40;99.90;;;;;;4937371;28;20499;-84
2021/12/10 08:27:03;;;;;;;28.75;14.75;;;1.40;99.90;;;;;;4914235;28;20072;-83
2021/12/10 08:29:38;;;;;;;34.00;14.68;;;1.40;99.90;;;;;;4916306;28;20071;-85
2021/12/10 08:32:04;;;;;;;30.40;16.23;;;1.50;99.90;;;;;;4918738;28;20047;-83
2021/12/10 08:34:40;;;;;;;34.60;15.43;;;1.50;99.90;;;;;;4921650;28;20035;-83
2021/12/10 08:37:11;;;;;;;30.52;15.50;;;1.50;99.90;;;;;;4933695;28;20047;-85
2021/12/10 08:39:37;;;;;;;32.60;15.18;;;1.60;99.90;;;;;;4932652;28;20126;-83
2021/12/10 08:42:09;;;;;;;33.17;15.15;;;1.60;99.90;;;;;;4901464;28;20481;-84
2021/12/10 08:44:44;;;;;;;26.48;14.55;;;1.60;99.90;;;;;;4934398;28;20514;-85
2021/12/10 08:47:18;;;;;;;26.30;15.45;;;1.70;99.90;;;;;;4929370;28;20359;-84
2021/12/10 08:49:51;;;;;;;29.08;14.65;;;1.70;99.90;;;;;;4920186;28;20043;-84
2021/12/10 08:52:19;;;;;;;25.48;14.23;;;1.80;99.90;;;;;;4900122;28;20042;-82
2021/12/10 08:54:48;;;;;;;32.05;14.93;;;1.80;99.90;;;;;;4901824;28;20054;-84
2021/12/10 08:57:27;;;;;;;30.60;15.68;;;1.90;99.90;;;;;;4912931;28;20465;-84
2021/12/10 09:00:05;;;;;;;32.20;14.85;;;1.90;99.90;;;;;;4910605;28;20462;-84
2021/12/10 09:02:50;;;;;;;32.10;16.00;;;1.90;99.90;;;;;;4911102;28;20089;-84
2021/12/10 09:05:18;;;;;;;28.90;14.38;;;2.00;99.90;;;;;;4929524;28;20035;-83
2021/12/10 09:07:50;;;;;;;31.90;15.05;;;2.00;99.90;;;;;;4931780;28;20097;-84
2021/12/10 09:10:32;;;;;;;30.98;14.10;;;2.00;99.90;;;;;;4912415;28;20756;-85
2021/12/10 09:13:04;;;;;;;35.47;15.43;;;2.10;99.90;;;;;;4926866;28;20050;-84
2021/12/10 09:15:32;;;;;;;26.50;14.07;;;2.10;99.90;;;;;;4900079;28;20130;-84
2021/12/10 09:18:12;;;;;;;24.33;14.02;;;2.10;99.90;;;;;;4911832;28;20398;-84
2021/12/10 09:20:59;;;;;;;26.27;14.85;;;2.20;99.90;;;;;;4943726;28;20054;-85
2021/12/10 09:23:45;;;;;;;27.38;14.02;;;2.20;99.90;;;;;;4944599;28;20067;-84
2021/12/10 09:26:27;;;;;;;22.77;13.15;;;2.30;99.90;;;;;;4925541;28;20118;-83
2021/12/10 09:29:18;;;;;;;28.73;13.18;;;2.40;99.90;;;;;;4912995;28;20082;-83
2021/12/10 09:31:46;;;;;;;29.48;14.98;;;2.40;99.90;;;;;;4913983;28;20046;-83
2021/12/10 09:34:16;;;;;;;20.85;12.80;;;2.50;99.90;;;;;;4929149;28;20047;-84
2021/12/10 09:36:44;;;;;;;24.08;12.93;;;2.50;99.90;;;;;;4936055;28;20494;-83
2021/12/10 09:39:12;;;;;;;23.58;12.75;;;2.60;99.90;;;;;;4926075;28;20109;-84
2021/12/10 09:41:46;;;;;;;25.13;13.30;;;2.60;99.90;;;;;;4915156;28;20043;-85
2021/12/10 09:44:15;;;;;;;25.10;12.38;;;2.60;99.90;;;;;;4929601;28;20748;-84
2021/12/10 09:46:42;;;;;;;22.35;12.57;;;2.70;99.90;;;;;;4912113;28;20458;-85
2021/12/10 09:49:24;;;;;;;24.20;12.55;;;2.70;99.90;;;;;;4929788;28;20106;-84
2021/12/10 09:51:58;;;;;;;24.08;13.52;;;2.80;99.90;;;;;;4900692;28;20360;-84
2021/12/10 09:54:37;;;;;;;20.38;12.27;;;2.80;99.90;;;;;;4913458;28;20129;-85
2021/12/10 09:57:17;;;;;;;17.90;11.52;;;2.90;99.90;;;;;;4912009;28;20042;-83
2021/12/10 09:59:51;;;;;;;26.88;12.45;;;3.00;99.90;;;;;;4930806;28;20145;-84
2021/12/10 10:02:20;;;;;;;23.77;11.57;;;3.10;99.90;;;;;;4929270;28;20039;-85
2021/12/10 10:05:04;;;;;;;22.33;11.23;;;3.10;99.90;;;;;;4915863;28;20063;-84
2021/12/10 10:07:33;;;;;;;17.08;10.80;;;3.20;99.90;;;;;;4930349;28;20039;-84
2021/12/10 10:10:44;;;;;;;23.55;11.85;;;3.20;99.90;;;;;;4916881;28;20426;-85
2021/12/10 10:13:34;;;;;;;16.20;10.05;;;3.30;99.90;;;;;;4945457;28;20520;-84
2021/12/10 10:16:42;;;;;;;;;;;;;;;;;;;;;
2021/12/10 10:19:36;;;;;;;13.55;9.57;;;3.50;99.90;;;;;;4944454;28;25342;-85
2021/12/10 10:22:06;;;;;;;16.73;10.63;;;3.60;99.90;;;;;;4935461;28;20047;-83
2021/12/10 10:24:50;;;;;;;21.98;10.90;;;3.60;99.90;;;;;;4927670;28;20051;-85
2021/12/10 10:27:58;;;;;;;22.25;9.85;;;3.80;99.90;;;;;;4927827;28;20061;-84
2021/12/10 10:31:40;;;;;;;15.60;10.00;;;3.90;99.90;;;;;;4913477;28;20098;-85
2021/12/10 10:34:31;;;;;;;13.18;9.10;;;4.00;99.90;;;;;;4857488;29;20055;-84
2021/12/10 10:37:05;;;;;;;16.35;8.07;;;4.20;99.90;;;;;;4860287;29;20839;-82
2021/12/10 10:39:44;;;;;;;14.18;8.70;;;4.20;99.90;;;;;;4883661;29;20108;-84
2021/12/10 10:42:20;;;;;;;14.60;8.35;;;4.20;99.90;;;;;;4900758;28;20047;-84
2021/12/10 10:44:53;;;;;;;13.98;7.75;;;4.20;99.90;;;;;;4907782;28;20577;-86
2021/12/10 10:47:29;;;;;;;18.50;9.20;;;4.30;99.90;;;;;;4925577;28;20126;-85
2021/12/10 10:50:44;;;;;;;20.50;8.55;;;4.20;99.90;;;;;;4926083;28;20057;-85
2021/12/10 10:53:17;;;;;;;12.30;7.97;;;4.40;99.90;;;;;;4889349;28;20051;-84
2021/12/10 10:56:13;;;;;;;18.75;7.93;;;4.40;99.90;;;;;;4922714;28;20082;-84
2021/12/10 10:59:02;;;;;;;14.65;7.18;;;4.40;99.90;;;;;;4940869;28;20047;-83
2021/12/10 11:01:57;;;;;;;13.55;6.75;;;4.50;99.90;;;;;;4915079;28;20125;-85
2021/12/10 11:04:39;;;;;;;11.40;6.63;;;4.50;99.90;;;;;;4925920;29;20031;-84
2021/12/10 11:07:28;;;;;;;12.93;6.65;;;4.60;99.90;;;;;;4929219;28;20061;-85
2021/12/10 11:10:06;;;;;;;;;;;;;;;;;;;;;
2021/12/10 11:13:07;;;;;;;10.27;6.82;;;4.70;99.90;;;;;;4957192;23;20054;-84
2021/12/10 11:16:18;;;;;;;14.23;6.63;;;4.70;99.90;;;;;;4926940;28;20465;-84
2021/12/10 11:19:21;;;;;;;;;;;;;;;;;;;;;
2021/12/10 11:22:13;;;;;;;18.50;8.63;;;4.80;99.90;;;;;;4944877;28;20442;-84
2021/12/10 11:25:41;;;;;;;11.10;6.05;;;4.90;99.90;;;;;;4928377;28;20510;-85
2021/12/10 11:28:41;;;;;;;;;;;;;;;;;;;;;
2021/12/10 11:31:21;;;;;;;11.93;6.25;;;5.00;99.90;;;;;;4944436;28;20054;-85
2021/12/10 11:33:57;;;;;;;11.65;5.53;;;5.10;99.90;;;;;;4917937;28;20057;-84
2021/12/10 11:36:28;;;;;;;11.98;5.65;;;5.20;99.90;;;;;;4914615;28;20047;-84
2021/12/10 11:39:03;;;;;;;17.40;6.00;;;5.20;99.90;;;;;;4928042;28;20661;-85
2021/12/10 11:41:38;;;;;;;10.52;5.47;;;5.30;99.90;;;;;;4928769;28;20136;-85
2021/12/10 11:44:54;;;;;;;11.15;5.82;;;5.60;99.90;;;;;;4946400;28;20461;-85
2021/12/10 11:47:27;;;;;;;9.40;4.70;;;5.80;99.90;;;;;;4947840;28;22511;-85
2021/12/10 11:50:16;;;;;;;9.27;4.72;;;5.90;99.90;;;;;;4929538;28;20050;-84
2021/12/10 11:53:08;;;;;;;11.13;5.30;;;6.00;99.90;;;;;;4929652;28;20068;-83
2021/12/10 11:55:55;;;;;;;11.60;4.75;;;6.10;99.90;;;;;;4924076;28;20050;-86
2021/12/10 11:59:35;;;;;;;10.13;4.78;;;6.00;99.90;;;;;;4937927;28;20063;-84
2021/12/10 12:02:16;;;;;;;9.75;5.13;;;6.00;99.90;;;;;;4938099;28;20077;-86
2021/12/10 12:04:58;;;;;;;11.10;4.93;;;5.90;99.90;;;;;;4945080;28;20272;-84
2021/12/10 12:08:11;;;;;;;14.80;5.30;;;6.10;99.90;;;;;;4961095;28;20418;-85
2021/12/10 12:10:51;;;;;;;10.90;4.45;;;6.20;99.90;;;;;;4932804;28;20586;-86
2021/12/10 12:13:29;;;;;;;9.93;4.70;;;6.20;99.90;;;;;;4929955;28;20066;-85
2021/12/10 12:16:04;;;;;;;8.00;4.22;;;6.20;99.90;;;;;;4932315;28;20058;-85
2021/12/10 12:18:46;;;;;;;8.75;4.22;;;6.20;99.90;;;;;;4935744;28;20047;-85
2021/12/10 12:21:53;;;;;;;5.57;3.90;;;6.30;99.90;;;;;;4938814;28;20106;-86
2021/12/10 12:27:41;;;;;;;9.07;3.75;;;6.40;99.90;;;;;;4945556;28;20038;-86
2021/12/10 12:30:15;;;;;;;10.68;4.05;;;6.60;99.90;;;;;;4930943;28;20071;-84
2021/12/10 12:32:48;;;;;;;15.77;4.30;;;6.60;99.90;;;;;;4948091;28;20050;-86
2021/12/10 12:35:41;;;;;;;;;;;;;;;;;;;;;
2021/12/10 12:38:29;;;;;;;11.05;4.40;;;6.90;99.90;;;;;;4963143;28;20038;-85
2021/12/10 12:41:32;;;;;;;12.20;4.03;;;7.00;99.90;;;;;;4945387;28;20418;-85
2021/12/10 12:44:25;;;;;;;14.23;4.17;;;6.90;99.90;;;;;;4933657;28;20325;-85
2021/12/10 12:47:21;;;;;;;8.90;4.20;;;7.00;99.90;;;;;;4930966;28;20407;-85
2021/12/10 12:50:01;;;;;;;13.27;3.38;;;7.00;99.90;;;;;;4918620;28;20129;-87
2021/12/10 12:52:49;;;;;;;10.00;4.05;;;7.00;99.90;;;;;;4928834;28;20042;-85
2021/12/10 12:55:19;;;;;;;8.80;3.60;;;7.10;99.90;;;;;;4925528;28;20038;-85
2021/12/10 12:58:21;;;;;;;10.13;4.18;;;7.00;99.90;;;;;;4931666;28;20042;-86
2021/12/10 13:01:12;;;;;;;10.18;3.75;;;6.90;99.90;;;;;;4918911;28;20055;-86
2021/12/10 13:04:20;;;;;;;9.85;4.15;;;6.80;99.90;;;;;;4922058;28;20054;-85
2021/12/10 13:06:56;;;;;;;11.52;4.20;;;6.60;99.90;;;;;;4939264;28;20544;-86
2021/12/10 13:10:07;;;;;;;;;;;;;;;;;;;;;
2021/12/10 13:13:28;;;;;;;9.18;4.57;;;6.20;99.90;;;;;;4945872;28;20491;-85
2021/12/10 13:16:12;;;;;;;11.27;5.60;;;6.10;99.90;;;;;;4933335;28;20042;-86
2021/12/10 13:18:59;;;;;;;10.07;5.20;;;5.90;99.90;;;;;;4920484;28;20155;-86
2021/12/10 13:21:45;;;;;;;13.73;5.35;;;5.80;99.90;;;;;;4933478;28;20070;-86
2021/12/10 13:24:17;;;;;;;16.05;5.47;;;5.70;99.90;;;;;;4935811;28;20672;-85
2021/12/10 13:27:14;;;;;;;24.25;5.53;;;5.70;99.90;;;;;;4948971;28;20559;-86
2021/12/10 13:29:50;;;;;;;32.13;6.72;;;5.60;99.90;;;;;;4922140;28;20050;-87
2021/12/10 13:32:25;;;;;;;30.33;6.50;;;5.60;99.90;;;;;;4947232;28;20302;-86
2021/12/10 13:34:54;;;;;;;19.48;5.95;;;5.60;99.90;;;;;;4929443;28;20039;-86
2021/12/10 13:37:29;;;;;;;11.60;5.35;;;5.50;99.90;;;;;;4949864;28;20402;-86
2021/12/10 13:40:04;;;;;;;19.55;6.03;;;5.50;99.90;;;;;;4933737;28;20125;-85
2021/12/10 13:42:38;;;;;;;20.33;6.43;;;5.60;99.90;;;;;;4931136;28;20375;-85
2021/12/10 13:45:20;;;;;;;13.90;5.63;;;5.70;99.90;;;;;;4947557;28;20051;-85
2021/12/10 13:48:08;;;;;;;14.20;6.18;;;5.70;99.90;;;;;;4939238;28;20034;-87
2021/12/10 13:51:03;;;;;;;10.02;5.22;;;5.70;99.90;;;;;;4925279;28;20038;-86
2021/12/10 13:53:31;;;;;;;11.05;5.80;;;5.60;99.90;;;;;;4934093;28;20057;-85
2021/12/10 13:56:12;;;;;;;12.98;6.25;;;5.60;99.90;;;;;;4916075;28;20039;-84
2021/12/10 13:59:05;;;;;;;16.27;5.90;;;5.50;99.90;;;;;;4929432;28;20043;-85
2021/12/10 14:01:58;;;;;;;19.70;6.55;;;5.40;99.90;;;;;;4929258;28;20170;-84
2021/12/10 14:04:47;;;;;;;20.77;6.13;;;5.30;99.90;;;;;;4935041;28;20390;-85
2021/12/10 14:07:33;;;;;;;14.95;6.57;;;5.10;99.90;;;;;;4941255;28;20038;-84
2021/12/10 14:10:02;;;;;;;10.73;5.93;;;5.00;99.90;;;;;;4911606;28;20093;-86
2021/12/10 14:12:48;;;;;;;16.83;5.90;;;5.00;99.90;;;;;;4947785;28;20344;-86
2021/12/10 14:15:48;;;;;;;16.60;5.75;;;4.90;99.90;;;;;;4930024;28;20094;-85
2021/12/10 14:18:24;;;;;;;12.90;6.45;;;4.90;99.90;;;;;;4932524;28;20043;-85
2021/12/10 14:21:01;;;;;;;16.17;6.40;;;4.90;99.90;;;;;;4948340;28;20046;-87
2021/12/10 14:23:52;;;;;;;12.02;5.90;;;4.80;99.90;;;;;;4930244;28;20407;-84
2021/12/10 14:26:38;;;;;;;14.35;6.10;;;4.80;99.90;;;;;;4953579;28;20181;-84
2021/12/10 14:29:49;;;;;;;;;;;;;;;;;;;;;
2021/12/10 14:32:35;;;;;;;16.48;6.50;;;4.60;99.90;;;;;;4944521;28;20070;-86
2021/12/10 14:35:20;;;;;;;12.18;5.97;;;4.50;99.90;;;;;;4932306;28;22757;-86
2021/12/10 14:38:33;;;;;;;22.98;7.22;;;4.40;99.90;;;;;;4916023;28;20585;-84